Wildwood Camp, Iowa
Current Conditions -  °F | °C
As of 4:52 PM on Wednesday 22 Oct 2014 (Local Time) from KDVN Reporting Station
Clear Clear  
Wind Chill: 16°   Ceiling: Unl
Heat Index: 16°   Visibility: 10mi
Dew Point:   Wind: 10mph
Humidity: 42%   Direction: 130°SE
Pressure: 30.22"   Gusts: NA
Location:  41.7317°N, 90.5411°W
Report Text: KDVN 222152Z AUTO 13009KT 10SM CLR 16/03 A3022 RMK AO2 SLP235 T01560028 TSNO
Loading
Personal Weather Stations






























Interactive Weather Map
Tropical Storm Tracking
New forecast layout! Learn more

10-Day Weather Forecast

Advertisements
Track Severe Weather on mobile